createdAt,value
2023-02-23T00:04:21.222Z,22.88
2023-02-23T00:06:47.885Z,26.65
2023-02-23T00:09:35.913Z,28.48
2023-02-23T00:12:07.863Z,26.98
2023-02-23T00:14:37.767Z,28.90
2023-02-23T00:17:05.045Z,26.13
2023-02-23T00:19:33.603Z,26.60
2023-02-23T00:22:01.170Z,29.98
2023-02-23T00:24:28.051Z,30.97
2023-02-23T00:26:54.679Z,33.45
2023-02-23T00:29:22.942Z,31.55
2023-02-23T00:31:50.908Z,33.30
2023-02-23T00:34:23.548Z,33.40
2023-02-23T00:36:52.182Z,35.75
2023-02-23T00:41:49.893Z,27.85
2023-02-23T00:44:17.064Z,23.98
2023-02-23T00:46:45.336Z,24.58
2023-02-23T00:49:13.579Z,25.88
2023-02-23T00:51:40.273Z,24.85
2023-02-23T00:54:07.440Z,26.88
2023-02-23T00:56:34.332Z,25.70
2023-02-23T00:59:01.344Z,23.90
2023-02-23T01:01:28.397Z,25.60
2023-02-23T01:03:55.047Z,25.88
2023-02-23T01:06:22.220Z,30.52
2023-02-23T01:08:50.359Z,28.05
2023-02-23T01:11:23.006Z,25.35
2023-02-23T01:13:52.275Z,26.52
2023-02-23T01:16:21.026Z,27.38
2023-02-23T01:18:48.976Z,25.13
2023-02-23T01:21:20.082Z,26.38
2023-02-23T01:23:47.438Z,23.30
2023-02-23T01:26:25.659Z,24.17
2023-02-23T01:28:57.626Z,27.05
2023-02-23T01:31:25.252Z,26.95
2023-02-23T01:33:56.336Z,28.57
2023-02-23T01:36:23.373Z,27.30
2023-02-23T01:38:50.127Z,24.17
2023-02-23T01:41:17.592Z,22.88
2023-02-23T01:44:05.224Z,25.40
2023-02-23T01:46:37.013Z,21.00
2023-02-23T01:49:04.010Z,21.30
2023-02-23T01:51:34.108Z,28.55
2023-02-23T01:54:03.117Z,22.17
2023-02-23T01:56:35.154Z,21.98
2023-02-23T01:59:05.280Z,24.55
2023-02-23T02:01:32.075Z,29.35
2023-02-23T02:04:02.049Z,29.02
2023-02-23T02:06:29.205Z,25.58
2023-02-23T02:08:58.377Z,23.02
2023-02-23T02:11:36.288Z,25.25
2023-02-23T02:14:15.807Z,30.80
2023-02-23T02:17:02.383Z,34.63
2023-02-23T02:19:48.752Z,34.05
2023-02-23T02:22:49.408Z,28.80
2023-02-23T02:25:54.327Z,28.85
2023-02-23T02:29:02.549Z,30.33
2023-02-23T02:31:46.069Z,29.30
2023-02-23T02:34:32.642Z,27.80
2023-02-23T02:37:11.432Z,29.90
2023-02-23T02:40:16.230Z,27.02
2023-02-23T02:42:57.076Z,26.90
2023-02-23T02:45:32.352Z,25.35
2023-02-23T02:48:07.774Z,28.35
2023-02-23T02:50:56.584Z,28.10
2023-02-23T02:53:29.547Z,27.60
2023-02-23T02:56:00.385Z,26.20
2023-02-23T02:58:27.560Z,27.55
2023-02-23T03:01:12.863Z,27.90
2023-02-23T03:04:01.541Z,28.52
2023-02-23T03:06:55.798Z,25.73
2023-02-23T03:10:00.550Z,26.75
2023-02-23T03:13:19.840Z,26.75
2023-02-23T03:16:22.733Z,27.63
2023-02-23T03:19:19.000Z,25.98
2023-02-23T03:22:14.525Z,26.73
2023-02-23T03:25:03.669Z,25.92
2023-02-23T03:28:01.726Z,26.70
2023-02-23T03:31:07.224Z,26.58
2023-02-23T03:34:01.423Z,29.33
2023-02-23T03:36:47.741Z,29.25
2023-02-23T03:39:44.534Z,29.73
2023-02-23T03:42:33.204Z,28.27
2023-02-23T03:45:23.391Z,29.02
2023-02-23T03:48:09.133Z,30.35
2023-02-23T03:50:59.481Z,26.77
2023-02-23T03:54:19.551Z,28.42
2023-02-23T03:57:07.665Z,25.23
2023-02-23T03:59:57.830Z,26.48
2023-02-23T04:02:43.853Z,27.83
2023-02-23T04:05:34.644Z,27.10
2023-02-23T04:08:22.291Z,29.75
2023-02-23T04:11:18.128Z,32.35
2023-02-23T04:13:45.565Z,30.45
2023-02-23T04:16:12.212Z,33.25
2023-02-23T04:18:39.804Z,32.25
2023-02-23T04:21:07.147Z,36.17
2023-02-23T04:23:34.605Z,33.05
2023-02-23T04:26:01.234Z,29.88
2023-02-23T04:28:28.336Z,32.30
2023-02-23T04:30:55.037Z,35.83
2023-02-23T04:33:22.370Z,32.35
2023-02-23T04:35:49.208Z,31.35
2023-02-23T04:38:16.017Z,32.95
2023-02-23T04:40:42.873Z,32.67
2023-02-23T04:43:12.380Z,36.20
2023-02-23T04:45:39.262Z,37.78
2023-02-23T04:48:06.267Z,38.35
2023-02-23T04:50:33.007Z,39.42
2023-02-23T04:52:59.890Z,36.65
2023-02-23T04:55:26.805Z,34.15
2023-02-23T04:57:59.108Z,31.90
2023-02-23T05:00:26.408Z,29.90
2023-02-23T05:02:53.046Z,26.73
2023-02-23T05:05:19.645Z,26.55
2023-02-23T05:07:46.323Z,32.67
2023-02-23T05:10:12.898Z,35.45
2023-02-23T05:12:39.502Z,34.78
2023-02-23T05:15:06.785Z,32.30
2023-02-23T05:17:33.381Z,33.58
2023-02-23T05:19:59.925Z,35.15
2023-02-23T05:22:26.480Z,34.22
2023-02-23T05:24:53.511Z,34.13
2023-02-23T05:27:20.884Z,33.58
2023-02-23T05:29:47.502Z,31.27
2023-02-23T05:32:14.236Z,33.58
2023-02-23T05:34:41.134Z,35.65
2023-02-23T05:37:07.753Z,36.53
2023-02-23T05:39:34.306Z,36.40
2023-02-23T05:42:00.902Z,41.78
2023-02-23T05:44:27.662Z,45.00
2023-02-23T05:46:54.352Z,45.30
2023-02-23T05:49:20.965Z,46.30
2023-02-23T05:51:47.574Z,49.30
2023-02-23T05:54:14.286Z,43.67
2023-02-23T05:56:42.085Z,43.33
2023-02-23T05:59:08.670Z,48.65
2023-02-23T06:01:35.866Z,45.85
2023-02-23T06:04:03.527Z,49.00
2023-02-23T06:06:31.205Z,45.65
2023-02-23T06:08:57.759Z,42.22
2023-02-23T06:11:24.363Z,38.42
2023-02-23T06:13:50.949Z,34.35
2023-02-23T06:16:17.698Z,36.42
2023-02-23T06:18:44.357Z,34.70
2023-02-23T06:21:10.929Z,33.45
2023-02-23T06:23:38.139Z,36.85
2023-02-23T06:26:04.949Z,31.70
2023-02-23T06:28:31.557Z,36.45
2023-02-23T06:30:58.259Z,36.13
2023-02-23T06:33:25.559Z,32.42
2023-02-23T06:35:52.918Z,34.13
2023-02-23T06:38:20.508Z,33.00
2023-02-23T06:40:47.127Z,31.80
2023-02-23T06:43:13.733Z,33.80
2023-02-23T06:45:40.977Z,34.58
2023-02-23T06:48:07.941Z,34.70
2023-02-23T06:50:34.589Z,34.13
2023-02-23T06:53:01.144Z,37.17
2023-02-23T06:55:27.728Z,39.22
2023-02-23T06:57:54.460Z,39.70
2023-02-23T07:00:21.974Z,41.83
2023-02-23T07:02:49.159Z,37.17
2023-02-23T07:05:16.330Z,35.88
2023-02-23T07:07:43.333Z,38.28
2023-02-23T07:10:10.725Z,35.03
2023-02-23T07:12:37.299Z,40.20
2023-02-23T07:15:04.463Z,39.65
2023-02-23T07:17:31.120Z,39.13
2023-02-23T07:19:58.005Z,40.35
2023-02-23T07:22:27.456Z,41.63
2023-02-23T07:24:54.002Z,43.28
2023-02-23T07:27:20.836Z,44.13
2023-02-23T07:29:47.682Z,46.08
2023-02-23T07:32:14.530Z,43.83
2023-02-23T07:34:41.122Z,44.08
2023-02-23T07:37:07.697Z,42.33
2023-02-23T07:39:34.307Z,48.20
2023-02-23T07:42:00.941Z,46.42
2023-02-23T07:44:27.578Z,45.63
2023-02-23T07:46:54.218Z,45.47
2023-02-23T07:49:20.808Z,46.58
2023-02-23T07:51:47.437Z,44.33
2023-02-23T07:54:15.042Z,48.42
2023-02-23T07:56:41.813Z,47.97
2023-02-23T07:59:08.396Z,42.75
2023-02-23T08:01:36.117Z,44.08
2023-02-23T08:04:03.175Z,45.80
2023-02-23T08:06:30.406Z,42.05
2023-02-23T08:09:00.232Z,39.30
2023-02-23T08:11:29.119Z,39.42
2023-02-23T08:14:00.368Z,38.83
2023-02-23T08:16:31.485Z,36.90
2023-02-23T08:18:58.876Z,35.47
2023-02-23T08:21:29.550Z,36.35
2023-02-23T08:23:57.771Z,36.58
2023-02-23T08:26:25.525Z,37.90
2023-02-23T08:28:53.399Z,36.88
2023-02-23T08:31:24.081Z,35.78
2023-02-23T08:33:51.751Z,36.88
2023-02-23T08:36:19.029Z,36.53
2023-02-23T08:38:45.617Z,35.65
2023-02-23T08:41:12.449Z,37.15
2023-02-23T08:43:39.359Z,36.85
2023-02-23T08:46:07.144Z,32.75
2023-02-23T08:48:34.183Z,34.65
2023-02-23T08:51:01.142Z,35.55
2023-02-23T08:53:29.729Z,33.58
2023-02-23T08:58:23.973Z,29.40
2023-02-23T09:00:50.877Z,33.10
2023-02-23T09:03:17.626Z,31.80
2023-02-23T09:05:44.319Z,31.60
2023-02-23T09:08:12.422Z,32.80
2023-02-23T09:10:39.600Z,30.40
2023-02-23T09:13:06.345Z,33.15
2023-02-23T09:15:33.037Z,32.13
2023-02-23T09:18:01.632Z,33.17
2023-02-23T09:22:55.084Z,34.25
2023-02-23T09:25:25.137Z,33.03
2023-02-23T09:27:53.576Z,34.75
2023-02-23T09:30:21.434Z,36.85
2023-02-23T09:32:48.799Z,31.77
2023-02-23T09:35:19.162Z,30.63
2023-02-23T09:37:48.525Z,34.22
2023-02-23T09:40:21.929Z,31.52
2023-02-23T09:43:23.205Z,29.13
2023-02-23T09:45:55.703Z,28.63
2023-02-23T09:48:24.697Z,31.88
2023-02-23T09:50:56.454Z,33.60
2023-02-23T09:53:34.101Z,30.55
2023-02-23T09:56:02.645Z,31.15
2023-02-23T09:58:33.990Z,32.47
2023-02-23T10:01:19.548Z,31.10
2023-02-23T10:04:02.187Z,27.58
2023-02-23T10:06:29.307Z,32.60
2023-02-23T10:09:04.857Z,33.63
2023-02-23T10:11:43.598Z,33.38
2023-02-23T10:14:45.078Z,33.40
2023-02-23T10:17:24.708Z,32.78
2023-02-23T10:19:55.366Z,32.65
2023-02-23T10:22:22.326Z,32.58
2023-02-23T10:25:17.207Z,34.42
2023-02-23T10:27:48.470Z,33.40
2023-02-23T10:30:36.035Z,33.33
2023-02-23T10:33:10.860Z,31.25
2023-02-23T10:35:38.394Z,34.75
2023-02-23T10:38:05.439Z,31.77
2023-02-23T10:40:33.737Z,36.50
2023-02-23T10:43:01.489Z,32.30
2023-02-23T10:45:29.788Z,33.83
2023-02-23T10:48:06.545Z,31.75
2023-02-23T10:50:33.724Z,33.55
2023-02-23T10:53:06.864Z,33.38
2023-02-23T10:55:34.224Z,33.80
2023-02-23T10:58:10.836Z,34.58
2023-02-23T11:00:40.791Z,33.67
2023-02-23T11:03:22.579Z,34.03
2023-02-23T11:05:53.809Z,34.25
2023-02-23T11:08:22.438Z,34.92
2023-02-23T11:11:05.241Z,34.17
2023-02-23T11:13:38.255Z,35.22
2023-02-23T11:16:06.371Z,35.90
2023-02-23T11:18:33.171Z,33.88
2023-02-23T11:20:59.794Z,31.88
2023-02-23T11:23:36.127Z,32.85
2023-02-23T11:26:06.673Z,31.42
2023-02-23T11:28:37.150Z,31.75
2023-02-23T11:31:15.304Z,32.63
2023-02-23T11:33:42.324Z,31.65
2023-02-23T11:36:14.763Z,29.55
2023-02-23T11:38:41.384Z,29.42
2023-02-23T11:41:20.332Z,32.75
2023-02-23T11:43:58.172Z,30.13
2023-02-23T11:46:25.953Z,29.08
2023-02-23T11:49:01.336Z,26.48
2023-02-23T11:51:33.930Z,31.23
2023-02-23T11:54:01.403Z,28.15
2023-02-23T11:56:29.657Z,28.42
2023-02-23T11:59:00.398Z,28.20
2023-02-23T12:01:44.674Z,29.02
2023-02-23T12:04:29.349Z,28.30
2023-02-23T12:07:24.002Z,30.00
2023-02-23T12:09:59.419Z,30.42
2023-02-23T12:12:28.582Z,27.05
2023-02-23T12:15:16.252Z,24.90
2023-02-23T12:17:49.120Z,26.05
2023-02-23T12:20:24.339Z,27.25
2023-02-23T12:23:10.652Z,28.20
2023-02-23T12:25:48.210Z,24.75
2023-02-23T12:28:20.912Z,25.03
2023-02-23T12:31:03.056Z,25.17
2023-02-23T12:33:42.103Z,21.92
2023-02-23T12:36:35.550Z,23.88
2023-02-23T12:39:18.448Z,21.38
2023-02-23T12:42:06.594Z,20.90
2023-02-23T12:44:42.734Z,19.30
2023-02-23T12:47:34.293Z,19.80
2023-02-23T12:50:33.838Z,19.17
2023-02-23T12:53:18.714Z,19.58
2023-02-23T12:58:54.633Z,19.70
2023-02-23T13:01:48.409Z,17.50
2023-02-23T13:04:51.063Z,17.88
2023-02-23T13:07:23.188Z,17.75
2023-02-23T13:10:16.096Z,19.60
2023-02-23T13:13:11.391Z,17.52
2023-02-23T13:15:40.801Z,19.83
2023-02-23T13:18:20.339Z,19.80
2023-02-23T13:20:47.954Z,18.48
2023-02-23T13:23:37.733Z,19.37
2023-02-23T13:26:17.608Z,13.75
2023-02-23T13:29:02.630Z,14.63
2023-02-23T13:31:40.368Z,16.20
2023-02-23T13:34:11.891Z,15.43
2023-02-23T13:36:40.697Z,15.52
2023-02-23T13:39:28.590Z,13.65
2023-02-23T13:42:01.252Z,15.40
2023-02-23T13:45:06.756Z,13.95
2023-02-23T13:47:36.707Z,14.38
2023-02-23T13:50:37.901Z,13.70
2023-02-23T13:53:07.273Z,14.45
2023-02-23T13:55:48.148Z,14.30
2023-02-23T13:58:19.364Z,14.98
2023-02-23T14:00:54.320Z,14.40
2023-02-23T14:03:27.278Z,13.13
2023-02-23T14:05:57.420Z,13.55
2023-02-23T14:08:32.969Z,13.75
2023-02-23T14:10:59.613Z,13.50
2023-02-23T14:13:30.440Z,14.38
2023-02-23T14:16:18.731Z,14.48
2023-02-23T14:21:31.316Z,13.98
2023-02-23T14:24:27.369Z,13.85
2023-02-23T14:27:38.627Z,14.20
2023-02-23T14:30:13.038Z,14.32
2023-02-23T14:32:46.559Z,15.60
2023-02-23T14:35:48.209Z,13.20
2023-02-23T14:38:47.526Z,15.40
2023-02-23T14:41:15.029Z,16.05
2023-02-23T14:43:43.351Z,15.20
2023-02-23T14:48:58.620Z,15.13
2023-02-23T14:51:32.361Z,16.02
2023-02-23T14:54:00.031Z,16.13
2023-02-23T14:56:38.715Z,15.32
2023-02-23T14:59:21.139Z,14.88
2023-02-23T15:01:47.902Z,15.40
2023-02-23T15:04:24.189Z,15.32
2023-02-23T15:06:54.847Z,16.38
2023-02-23T15:09:32.110Z,16.73
2023-02-23T15:12:00.464Z,17.05
2023-02-23T15:14:28.541Z,14.48
2023-02-23T15:16:56.323Z,15.18
2023-02-23T15:19:24.916Z,14.80
2023-02-23T15:24:27.972Z,15.95
2023-02-23T15:26:56.135Z,16.65
2023-02-23T15:29:31.750Z,14.98
2023-02-23T15:32:15.105Z,14.88
2023-02-23T15:34:41.854Z,15.65
2023-02-23T15:37:24.471Z,15.63
2023-02-23T15:39:57.010Z,14.40
2023-02-23T15:42:45.338Z,14.32
2023-02-23T15:47:42.353Z,14.95
2023-02-23T15:50:24.680Z,13.52
2023-02-23T15:53:01.396Z,15.50
2023-02-23T15:55:35.400Z,15.60
2023-02-23T15:58:15.816Z,16.25
2023-02-23T16:00:44.028Z,15.48
2023-02-23T16:03:44.400Z,15.35
2023-02-23T16:06:35.556Z,16.65
2023-02-23T16:09:06.058Z,15.10
2023-02-23T16:11:36.031Z,15.10
2023-02-23T16:14:05.559Z,14.68
2023-02-23T16:16:34.733Z,15.15
2023-02-23T16:19:01.791Z,13.73
2023-02-23T16:21:32.326Z,15.23
2023-02-23T16:24:01.850Z,14.90
2023-02-23T16:26:34.456Z,14.15
2023-02-23T16:29:02.246Z,14.30
2023-02-23T16:31:44.653Z,16.95
2023-02-23T16:34:19.626Z,17.27
2023-02-23T16:36:49.815Z,16.98
2023-02-23T16:39:17.543Z,15.52
2023-02-23T16:41:47.531Z,15.50
2023-02-23T16:44:21.696Z,17.02
2023-02-23T16:46:54.082Z,16.10
2023-02-23T16:49:23.329Z,14.98
2023-02-23T16:51:50.954Z,16.80
2023-02-23T16:54:17.618Z,16.07
2023-02-23T16:56:46.717Z,18.33
2023-02-23T16:59:18.265Z,18.83
2023-02-23T17:01:46.627Z,18.42
2023-02-23T17:04:17.362Z,18.85
2023-02-23T17:06:52.882Z,18.95
2023-02-23T17:09:19.551Z,18.10
2023-02-23T17:11:47.266Z,18.90
2023-02-23T17:14:25.396Z,17.33
2023-02-23T17:16:52.094Z,17.60
2023-02-23T17:19:19.482Z,17.73
2023-02-23T17:21:46.751Z,17.67
2023-02-23T17:24:13.440Z,19.27
2023-02-23T17:26:42.112Z,18.00
2023-02-23T17:29:09.090Z,18.48
2023-02-23T17:31:38.093Z,20.20
2023-02-23T17:34:04.960Z,17.60
2023-02-23T17:36:31.552Z,20.15
2023-02-23T17:38:58.970Z,19.48
2023-02-23T17:41:27.231Z,19.13
2023-02-23T17:43:54.776Z,19.67
2023-02-23T17:46:21.501Z,18.30
2023-02-23T17:48:48.119Z,19.70
2023-02-23T17:51:16.914Z,21.05
2023-02-23T17:53:43.625Z,20.05
2023-02-23T17:56:10.521Z,21.20
2023-02-23T17:58:37.744Z,20.63
2023-02-23T18:01:06.829Z,22.73
2023-02-23T18:03:35.048Z,22.13
2023-02-23T18:06:02.964Z,21.15
2023-02-23T18:08:30.245Z,21.83
2023-02-23T18:10:57.978Z,19.48
2023-02-23T18:13:25.460Z,21.95
2023-02-23T18:15:54.533Z,21.92
2023-02-23T18:18:22.676Z,21.73
2023-02-23T18:20:56.072Z,22.45
2023-02-23T18:23:23.703Z,19.25
2023-02-23T18:25:50.934Z,20.53
2023-02-23T18:28:18.387Z,21.80
2023-02-23T18:30:45.527Z,19.88
2023-02-23T18:33:12.996Z,20.75
2023-02-23T18:35:42.585Z,18.63
2023-02-23T18:38:11.606Z,21.73
2023-02-23T18:40:39.323Z,19.90
2023-02-23T18:43:06.609Z,19.67
2023-02-23T18:45:34.073Z,21.30
2023-02-23T18:48:00.669Z,19.80
2023-02-23T18:50:27.316Z,21.30
2023-02-23T18:52:55.933Z,14.27
2023-02-23T18:55:23.137Z,10.35
2023-02-23T18:57:53.175Z,9.23
2023-02-23T19:00:20.685Z,5.10
2023-02-23T19:02:47.841Z,4.68
2023-02-23T19:05:16.311Z,4.65
2023-02-23T19:10:12.296Z,4.18
2023-02-23T19:12:39.526Z,4.47
2023-02-23T19:15:07.797Z,4.13
2023-02-23T19:17:34.946Z,4.03
2023-02-23T19:20:01.827Z,4.30
2023-02-23T19:22:29.507Z,4.53
2023-02-23T19:24:56.130Z,4.20
2023-02-23T19:27:22.992Z,5.25
2023-02-23T19:29:49.570Z,5.25
2023-02-23T19:32:16.578Z,4.63
2023-02-23T19:34:46.373Z,5.68
2023-02-23T19:37:13.317Z,5.28
2023-02-23T19:39:39.912Z,3.95
2023-02-23T19:42:06.644Z,6.07
2023-02-23T19:44:34.016Z,5.28
2023-02-23T19:47:00.656Z,3.90
2023-02-23T19:49:27.295Z,4.03
2023-02-23T19:51:53.996Z,5.47
2023-02-23T19:54:20.980Z,4.78
2023-02-23T19:56:50.151Z,5.10
2023-02-23T19:59:16.881Z,4.28
2023-02-23T20:01:45.903Z,5.38
2023-02-23T20:04:12.704Z,5.10
2023-02-23T20:06:44.743Z,6.50
2023-02-23T20:09:11.756Z,5.05
2023-02-23T20:11:38.581Z,5.20
2023-02-23T20:14:07.463Z,4.85
2023-02-23T20:16:35.284Z,6.55
2023-02-23T20:19:03.719Z,6.38
2023-02-23T20:23:58.794Z,5.65
2023-02-23T20:26:34.088Z,5.25
2023-02-23T20:29:01.763Z,6.10
2023-02-23T20:31:32.811Z,5.45
2023-02-23T20:34:02.111Z,5.15
2023-02-23T20:36:28.642Z,5.40
2023-02-23T20:38:55.242Z,5.07
2023-02-23T20:41:22.682Z,4.68
2023-02-23T20:43:51.610Z,6.38
2023-02-23T20:46:19.842Z,6.63
2023-02-23T20:48:49.056Z,5.47
2023-02-23T20:51:18.738Z,5.32
2023-02-23T20:53:48.124Z,8.45
2023-02-23T20:56:17.366Z,7.50
2023-02-23T20:58:44.712Z,7.72
2023-02-23T21:01:21.224Z,6.75
2023-02-23T21:03:51.186Z,8.20
2023-02-23T21:06:19.851Z,9.30
2023-02-23T21:08:49.052Z,6.22
2023-02-23T21:11:20.177Z,6.75
2023-02-23T21:13:46.978Z,6.10
2023-02-23T21:16:18.537Z,5.97
2023-02-23T21:18:45.540Z,5.10
2023-02-23T21:21:15.399Z,5.60
2023-02-23T21:23:43.456Z,4.65
2023-02-23T21:26:13.229Z,5.47
2023-02-23T21:28:46.657Z,5.68
2023-02-23T21:31:14.881Z,5.82
2023-02-23T21:33:43.201Z,5.15
2023-02-23T21:36:10.826Z,3.78
2023-02-23T21:38:39.140Z,4.80
2023-02-23T21:41:06.181Z,6.28
2023-02-23T21:43:35.170Z,5.80
2023-02-23T21:46:13.399Z,5.07
2023-02-23T21:48:40.611Z,4.28
2023-02-23T21:51:10.010Z,4.10
2023-02-23T21:53:37.597Z,5.00
2023-02-23T21:56:11.812Z,4.90
2023-02-23T21:58:39.642Z,4.65
2023-02-23T22:01:14.064Z,4.82
2023-02-23T22:03:44.778Z,3.97
2023-02-23T22:06:15.737Z,3.97
2023-02-23T22:08:47.385Z,4.68
2023-02-23T22:11:19.711Z,3.88
2023-02-23T22:13:47.903Z,4.50
2023-02-23T22:16:17.486Z,3.97
2023-02-23T22:18:44.187Z,5.10
2023-02-23T22:21:14.046Z,4.40
2023-02-23T22:23:41.679Z,4.05
2023-02-23T22:26:09.135Z,4.20
2023-02-23T22:28:36.536Z,4.00
2023-02-23T22:31:04.671Z,3.78
2023-02-23T22:33:31.314Z,3.85
2023-02-23T22:36:01.641Z,3.40
2023-02-23T22:38:28.262Z,3.95
